createdAt,value
2018-06-16T00:02:16.796Z,17.29
2018-06-16T00:04:45.508Z,17.31
2018-06-16T00:07:14.273Z,17.36
2018-06-16T00:09:42.998Z,17.43
2018-06-16T00:12:11.694Z,17.46
2018-06-16T00:14:40.421Z,17.45
2018-06-16T00:17:09.222Z,17.40
2018-06-16T00:19:37.982Z,17.38
2018-06-16T00:22:06.757Z,17.36
2018-06-16T00:24:35.492Z,17.36
2018-06-16T00:27:04.181Z,17.30
2018-06-16T00:29:32.916Z,17.32
2018-06-16T00:32:01.662Z,17.32
2018-06-16T00:34:30.398Z,17.32
2018-06-16T00:36:59.118Z,17.34
2018-06-16T00:39:27.812Z,17.36
2018-06-16T00:41:56.498Z,17.36
2018-06-16T00:44:25.233Z,17.38
2018-06-16T00:46:53.922Z,17.34
2018-06-16T00:49:22.608Z,17.35
2018-06-16T00:51:51.445Z,17.37
2018-06-16T00:54:20.137Z,17.38
2018-06-16T00:56:59.878Z,17.29
2018-06-16T00:59:28.597Z,17.24
2018-06-16T01:01:57.297Z,17.31
2018-06-16T01:04:26.040Z,17.32
2018-06-16T01:06:55.118Z,17.26
2018-06-16T01:09:23.825Z,17.21
2018-06-16T01:11:52.614Z,17.24
2018-06-16T01:14:21.347Z,17.29
2018-06-16T01:16:50.067Z,17.18
2018-06-16T01:19:18.809Z,17.24
2018-06-16T01:21:47.538Z,17.29
2018-06-16T01:24:16.262Z,17.28
2018-06-16T01:26:45.008Z,17.25
2018-06-16T01:29:13.944Z,17.21
2018-06-16T01:31:42.658Z,17.26
2018-06-16T01:34:11.482Z,17.22
2018-06-16T01:36:40.208Z,17.22
2018-06-16T01:39:10.337Z,17.16
2018-06-16T01:41:39.173Z,17.20
2018-06-16T01:44:08.381Z,17.18
2018-06-16T01:46:37.092Z,17.20
2018-06-16T01:49:05.846Z,17.23
2018-06-16T01:51:34.562Z,17.24
2018-06-16T01:54:03.273Z,17.30
2018-06-16T01:56:32.018Z,17.37
2018-06-16T01:59:00.746Z,17.43
2018-06-16T02:01:29.471Z,17.41
2018-06-16T02:03:58.211Z,17.39
2018-06-16T02:06:26.937Z,17.35
2018-06-16T02:08:55.818Z,17.34
2018-06-16T02:11:24.557Z,17.41
2018-06-16T02:13:53.623Z,17.37
2018-06-16T02:16:22.341Z,17.42
2018-06-16T02:18:51.085Z,17.41
2018-06-16T02:21:19.805Z,17.38
2018-06-16T02:23:48.538Z,17.42
2018-06-16T02:26:17.282Z,17.42
2018-06-16T02:28:46.001Z,17.49
2018-06-16T02:31:14.754Z,17.51
2018-06-16T02:33:43.507Z,17.48
2018-06-16T02:36:12.225Z,17.48
2018-06-16T02:38:40.934Z,17.47
2018-06-16T02:41:09.668Z,17.49
2018-06-16T02:43:38.364Z,17.45
2018-06-16T02:46:07.102Z,17.45
2018-06-16T02:48:35.839Z,17.46
2018-06-16T02:51:04.736Z,17.44
2018-06-16T02:53:33.653Z,17.43
2018-06-16T02:56:02.409Z,17.37
2018-06-16T02:58:31.164Z,17.31
2018-06-16T03:01:00.100Z,17.23
2018-06-16T03:03:28.977Z,17.22
2018-06-16T03:05:57.742Z,17.16
2018-06-16T03:08:26.481Z,17.11
2018-06-16T03:10:55.279Z,17.11
2018-06-16T03:13:23.994Z,17.13
2018-06-16T03:15:52.732Z,17.18
2018-06-16T03:18:21.495Z,17.22
2018-06-16T03:20:50.246Z,17.25
2018-06-16T03:23:18.982Z,17.27
2018-06-16T03:25:47.899Z,17.31
2018-06-16T03:28:16.629Z,17.37
2018-06-16T03:30:45.373Z,17.46
2018-06-16T03:33:14.191Z,17.58
2018-06-16T03:35:42.999Z,17.72
2018-06-16T03:38:11.749Z,17.85
2018-06-16T03:40:40.629Z,17.86
2018-06-16T03:43:09.331Z,18.12
2018-06-16T03:45:38.029Z,18.45
2018-06-16T03:48:06.746Z,19.37
2018-06-16T03:50:35.440Z,19.80
2018-06-16T03:53:04.152Z,19.77
2018-06-16T03:55:32.899Z,19.74
2018-06-16T03:58:01.745Z,19.85
2018-06-16T04:00:30.474Z,20.87
2018-06-16T04:02:59.227Z,22.42
2018-06-16T04:05:27.942Z,24.24
2018-06-16T04:07:56.897Z,25.37
2018-06-16T04:10:25.744Z,26.27
2018-06-16T04:12:54.576Z,27.90
2018-06-16T04:15:23.305Z,29.54
2018-06-16T04:17:52.050Z,30.97
2018-06-16T04:20:20.785Z,31.77
2018-06-16T04:22:49.501Z,31.27
2018-06-16T04:25:18.287Z,30.50
2018-06-16T04:27:47.007Z,30.62
2018-06-16T04:30:15.714Z,30.66
2018-06-16T04:32:44.627Z,30.70
2018-06-16T04:35:13.346Z,30.95
2018-06-16T04:37:42.226Z,30.91
2018-06-16T04:40:10.957Z,31.27
2018-06-16T04:42:39.718Z,30.77
2018-06-16T04:45:08.460Z,30.96
2018-06-16T04:47:37.203Z,30.99
2018-06-16T04:50:05.930Z,31.15
2018-06-16T04:52:34.647Z,31.98
2018-06-16T04:55:03.402Z,33.29
2018-06-16T04:57:32.123Z,34.06
2018-06-16T05:00:00.837Z,33.66
2018-06-16T05:02:29.701Z,32.36
2018-06-16T05:04:58.526Z,32.18
2018-06-16T05:07:27.261Z,31.69
2018-06-16T05:09:55.988Z,31.02
2018-06-16T05:12:24.743Z,30.34
2018-06-16T05:14:53.493Z,30.54
2018-06-16T05:17:22.230Z,31.31
2018-06-16T05:19:50.933Z,31.00
2018-06-16T05:22:19.637Z,31.73
2018-06-16T05:24:48.370Z,32.98
2018-06-16T05:27:17.069Z,32.32
2018-06-16T05:29:45.794Z,32.79
2018-06-16T05:32:14.523Z,32.43
2018-06-16T05:34:43.244Z,32.79
2018-06-16T05:37:11.926Z,33.44
2018-06-16T05:39:40.921Z,33.19
2018-06-16T05:42:09.753Z,33.53
2018-06-16T05:44:38.456Z,32.30
2018-06-16T05:47:07.192Z,32.42
2018-06-16T05:49:35.897Z,33.50
2018-06-16T05:52:04.585Z,33.42
2018-06-16T05:54:33.305Z,32.77
2018-06-16T05:57:02.029Z,32.90
2018-06-16T05:59:30.733Z,32.91
2018-06-16T06:01:59.469Z,35.00
2018-06-16T06:04:28.315Z,35.46
2018-06-16T06:06:57.028Z,35.73
2018-06-16T06:09:25.864Z,34.74
2018-06-16T06:11:54.591Z,33.50
2018-06-16T06:14:23.339Z,33.52
2018-06-16T06:16:52.059Z,35.00
2018-06-16T06:19:20.748Z,34.98
2018-06-16T06:21:49.445Z,35.69
2018-06-16T06:24:18.179Z,35.23
2018-06-16T06:26:46.865Z,35.93
2018-06-16T06:29:15.545Z,34.47
2018-06-16T06:31:44.270Z,32.42
2018-06-16T06:34:12.974Z,33.84
2018-06-16T06:36:41.666Z,34.32
2018-06-16T06:39:10.977Z,33.61
2018-06-16T06:41:39.669Z,33.58
2018-06-16T06:44:08.560Z,32.86
2018-06-16T06:46:37.294Z,33.53
2018-06-16T06:49:06.018Z,34.20
2018-06-16T06:51:35.044Z,33.77
2018-06-16T06:54:03.794Z,33.36
2018-06-16T06:56:32.490Z,32.90
2018-06-16T06:59:01.206Z,33.33
2018-06-16T07:01:29.977Z,33.51
2018-06-16T07:03:58.866Z,34.54
2018-06-16T07:06:27.548Z,35.78
2018-06-16T07:08:56.380Z,36.19
2018-06-16T07:11:25.168Z,36.26
2018-06-16T07:13:53.888Z,36.06
2018-06-16T07:16:22.748Z,36.86
2018-06-16T07:18:51.592Z,36.97
2018-06-16T07:21:20.327Z,37.31
2018-06-16T07:23:49.070Z,37.83
2018-06-16T07:26:17.807Z,37.19
2018-06-16T07:28:46.656Z,36.86
2018-06-16T07:31:15.439Z,37.17
2018-06-16T07:33:44.163Z,36.34
2018-06-16T07:36:12.975Z,36.20
2018-06-16T07:38:41.723Z,36.87
2018-06-16T07:41:10.453Z,36.44
2018-06-16T07:43:39.182Z,36.17
2018-06-16T07:46:07.911Z,36.11
2018-06-16T07:48:36.642Z,36.12
2018-06-16T07:51:05.377Z,35.54
2018-06-16T07:53:34.143Z,35.94
2018-06-16T07:56:02.894Z,37.49
2018-06-16T07:58:31.821Z,38.11
2018-06-16T08:01:00.594Z,39.07
2018-06-16T08:03:29.426Z,39.04
2018-06-16T08:05:58.475Z,38.11
2018-06-16T08:08:27.310Z,36.41
2018-06-16T08:10:56.031Z,35.97
2018-06-16T08:13:24.761Z,36.89
2018-06-16T08:15:53.919Z,35.70
2018-06-16T08:18:22.641Z,33.46
2018-06-16T08:20:51.358Z,32.74
2018-06-16T08:23:20.145Z,33.35
2018-06-16T08:25:48.857Z,33.59
2018-06-16T08:28:17.658Z,34.20
2018-06-16T08:30:46.398Z,34.12
2018-06-16T08:33:15.286Z,33.12
2018-06-16T08:35:43.993Z,33.49
2018-06-16T08:38:12.789Z,34.61
2018-06-16T08:40:41.521Z,34.07
2018-06-16T08:43:10.448Z,33.11
2018-06-16T08:45:39.469Z,33.47
2018-06-16T08:48:08.185Z,34.38
2018-06-16T08:50:37.471Z,34.53
2018-06-16T08:53:06.707Z,33.97
2018-06-16T08:55:35.993Z,34.71
2018-06-16T08:58:05.118Z,33.54
2018-06-16T09:00:34.073Z,34.15
2018-06-16T09:03:03.263Z,34.38
2018-06-16T09:05:32.264Z,33.97
2018-06-16T09:08:01.614Z,34.85
2018-06-16T09:10:30.808Z,33.76
2018-06-16T09:12:59.538Z,33.65
2018-06-16T09:15:28.286Z,33.87
2018-06-16T09:17:57.197Z,33.12
2018-06-16T09:20:26.443Z,33.76
2018-06-16T09:22:55.566Z,33.55
2018-06-16T09:25:24.333Z,32.82
2018-06-16T09:27:53.445Z,33.40
2018-06-16T09:30:22.174Z,34.41
2018-06-16T09:32:50.885Z,34.77
2018-06-16T09:35:19.598Z,34.53
2018-06-16T09:37:48.337Z,35.28
2018-06-16T09:40:17.047Z,36.10
2018-06-16T09:42:45.790Z,36.44
2018-06-16T09:45:14.577Z,37.25
2018-06-16T09:47:43.309Z,37.12
2018-06-16T09:50:12.183Z,35.84
2018-06-16T09:52:40.968Z,34.17
2018-06-16T09:55:09.723Z,34.24
2018-06-16T09:57:38.513Z,33.68
2018-06-16T10:00:11.615Z,33.45
2018-06-16T10:02:40.563Z,34.86
2018-06-16T10:05:09.304Z,34.84
2018-06-16T10:07:38.064Z,35.84
2018-06-16T10:10:06.947Z,35.27
2018-06-16T10:12:35.910Z,34.34
2018-06-16T10:15:05.209Z,34.50
2018-06-16T10:17:34.012Z,33.94
2018-06-16T10:20:02.879Z,34.10
2018-06-16T10:22:31.629Z,33.52
2018-06-16T10:25:00.536Z,33.60
2018-06-16T10:27:29.239Z,34.45
2018-06-16T10:29:58.004Z,35.33
2018-06-16T10:32:26.792Z,35.05
2018-06-16T10:34:55.912Z,32.78
2018-06-16T10:37:25.142Z,32.63
2018-06-16T10:39:54.637Z,33.45
2018-06-16T10:42:23.933Z,33.68
2018-06-16T10:44:53.128Z,34.77
2018-06-16T10:47:22.366Z,34.16
2018-06-16T10:49:51.885Z,34.18
2018-06-16T10:52:20.949Z,34.57
2018-06-16T10:54:50.018Z,34.53
2018-06-16T10:57:19.167Z,33.94
2018-06-16T10:59:48.425Z,32.76
2018-06-16T11:02:17.502Z,32.16
2018-06-16T11:04:46.253Z,31.79
2018-06-16T11:07:15.004Z,31.82
2018-06-16T11:09:44.269Z,31.28
2018-06-16T11:12:13.615Z,30.60
2018-06-16T11:14:42.917Z,29.44
2018-06-16T11:17:12.091Z,29.54
2018-06-16T11:19:40.823Z,29.58
2018-06-16T11:22:09.934Z,29.50
2018-06-16T11:24:39.262Z,29.20
2018-06-16T11:27:08.144Z,28.81
2018-06-16T11:29:37.453Z,28.45
2018-06-16T11:32:06.742Z,28.04
2018-06-16T11:34:36.636Z,27.78
2018-06-16T11:37:05.760Z,27.54
2018-06-16T11:39:35.062Z,27.18
2018-06-16T11:42:04.377Z,27.14
2018-06-16T11:44:33.600Z,27.02
2018-06-16T11:47:02.798Z,26.77
2018-06-16T11:49:31.961Z,26.61
2018-06-16T11:52:01.201Z,26.42
2018-06-16T11:54:29.915Z,26.25
2018-06-16T11:56:58.645Z,26.07
2018-06-16T11:59:27.437Z,25.92
2018-06-16T12:01:56.208Z,25.60
2018-06-16T12:04:24.934Z,25.54
2018-06-16T12:06:53.720Z,25.52
2018-06-16T12:09:22.432Z,25.44
2018-06-16T12:11:51.223Z,25.36
2018-06-16T12:14:19.941Z,25.27
2018-06-16T12:16:48.635Z,25.13
2018-06-16T12:19:17.838Z,24.94
2018-06-16T12:21:46.599Z,24.68
2018-06-16T12:24:15.290Z,24.24
2018-06-16T12:26:44.610Z,23.84
2018-06-16T12:29:13.841Z,23.24
2018-06-16T12:31:42.598Z,22.96
2018-06-16T12:34:11.710Z,22.84
2018-06-16T12:36:40.505Z,22.69
2018-06-16T12:39:10.714Z,22.55
2018-06-16T12:41:39.453Z,22.54
2018-06-16T12:44:08.239Z,22.30
2018-06-16T12:46:36.963Z,22.14
2018-06-16T12:49:05.767Z,21.96
2018-06-16T12:51:34.544Z,21.72
2018-06-16T12:54:03.327Z,21.46
2018-06-16T12:56:32.185Z,21.04
2018-06-16T12:59:01.136Z,20.65
2018-06-16T13:01:29.923Z,20.43
2018-06-16T13:03:58.661Z,20.20
2018-06-16T13:06:27.407Z,20.01
2018-06-16T13:08:56.242Z,20.07
2018-06-16T13:11:25.118Z,20.11
2018-06-16T13:13:54.450Z,20.17
2018-06-16T13:16:23.241Z,20.18
2018-06-16T13:18:52.752Z,20.09
2018-06-16T13:21:21.533Z,19.91
2018-06-16T13:23:50.429Z,19.78
2018-06-16T13:26:19.150Z,19.82
2018-06-16T13:28:48.069Z,19.69
2018-06-16T13:31:17.377Z,19.72
2018-06-16T13:33:46.563Z,19.36
2018-06-16T13:36:16.204Z,19.36
2018-06-16T13:38:45.169Z,19.26
2018-06-16T13:41:14.254Z,19.14
2018-06-16T13:43:43.412Z,19.18
2018-06-16T13:46:13.099Z,19.19
2018-06-16T13:48:42.126Z,19.29
2018-06-16T13:51:11.088Z,19.39
2018-06-16T13:53:39.991Z,19.38
2018-06-16T13:56:09.882Z,19.43
2018-06-16T13:58:38.696Z,19.49
2018-06-16T14:01:07.798Z,19.55
2018-06-16T14:03:37.916Z,19.69
2018-06-16T14:06:07.134Z,19.73
2018-06-16T14:08:36.154Z,19.81
2018-06-16T14:11:08.123Z,19.81
2018-06-16T14:13:40.318Z,19.97
2018-06-16T14:16:09.245Z,19.99
2018-06-16T14:18:38.056Z,20.05
2018-06-16T14:21:07.232Z,20.13
2018-06-16T14:23:36.253Z,20.10
2018-06-16T14:26:04.995Z,20.04
2018-06-16T14:28:33.707Z,20.12
2018-06-16T14:31:02.533Z,20.22
2018-06-16T14:33:31.255Z,20.29
2018-06-16T14:36:00.109Z,20.37
2018-06-16T14:38:29.232Z,20.44
2018-06-16T14:40:57.944Z,20.55
2018-06-16T14:43:26.690Z,20.40
2018-06-16T14:45:55.615Z,20.36
2018-06-16T14:48:24.355Z,20.54
2018-06-16T14:50:53.117Z,20.70
2018-06-16T14:53:21.912Z,20.77
2018-06-16T14:55:50.738Z,20.84
2018-06-16T14:58:19.465Z,20.75
2018-06-16T15:00:48.295Z,20.87
2018-06-16T15:03:17.090Z,21.07
2018-06-16T15:05:45.842Z,21.25
2018-06-16T15:08:14.601Z,21.41
2018-06-16T15:10:43.488Z,21.51
2018-06-16T15:13:12.382Z,21.53
2018-06-16T15:15:41.290Z,21.64
2018-06-16T15:18:10.464Z,21.80
2018-06-16T15:20:39.733Z,21.83
2018-06-16T15:23:08.643Z,21.82
2018-06-16T15:25:37.912Z,21.40
2018-06-16T15:28:07.091Z,21.36
2018-06-16T15:30:36.195Z,21.48
2018-06-16T15:33:04.950Z,21.74
2018-06-16T15:35:33.758Z,21.95
2018-06-16T15:38:02.524Z,22.14
2018-06-16T15:40:31.433Z,22.17
2018-06-16T15:43:00.179Z,22.19
2018-06-16T15:45:28.936Z,22.33
2018-06-16T15:47:57.706Z,22.38
2018-06-16T15:50:26.446Z,22.44
2018-06-16T15:53:01.345Z,22.45
2018-06-16T15:55:30.090Z,22.23
2018-06-16T15:57:58.893Z,22.39
2018-06-16T16:00:27.707Z,22.44
2018-06-16T16:02:56.675Z,22.42
2018-06-16T16:05:25.412Z,22.44
2018-06-16T16:07:54.334Z,22.49
2018-06-16T16:10:23.241Z,22.37
2018-06-16T16:12:51.998Z,22.37
2018-06-16T16:15:20.769Z,22.41
2018-06-16T16:17:49.506Z,22.42
2018-06-16T16:20:18.269Z,22.27
2018-06-16T16:22:47.117Z,22.19
2018-06-16T16:25:15.891Z,22.04
2018-06-16T16:27:44.656Z,22.05
2018-06-16T16:30:13.427Z,21.99
2018-06-16T16:32:42.165Z,21.92
2018-06-16T16:35:11.360Z,21.98
2018-06-16T16:37:40.666Z,21.95
2018-06-16T16:40:11.973Z,21.85
2018-06-16T16:42:41.226Z,21.91
2018-06-16T16:45:10.405Z,21.91
2018-06-16T16:47:39.411Z,21.97
2018-06-16T16:50:08.324Z,21.99
2018-06-16T16:52:37.042Z,21.95
2018-06-16T16:55:05.891Z,21.83
2018-06-16T16:57:34.754Z,21.64
2018-06-16T17:00:03.672Z,21.53
2018-06-16T17:02:32.462Z,21.53
2018-06-16T17:05:01.251Z,21.51
2018-06-16T17:07:30.149Z,21.51
2018-06-16T17:09:58.854Z,21.51
2018-06-16T17:12:28.198Z,21.42
2018-06-16T17:14:57.366Z,21.41
2018-06-16T17:17:26.626Z,21.38
2018-06-16T17:19:55.794Z,21.28
2018-06-16T17:22:25.122Z,21.28
2018-06-16T17:24:54.481Z,21.21
2018-06-16T17:27:23.710Z,21.14
2018-06-16T17:29:52.821Z,21.00
2018-06-16T17:32:22.130Z,21.00
2018-06-16T17:34:51.259Z,21.03
2018-06-16T17:37:20.485Z,20.98
2018-06-16T17:39:49.679Z,20.89
2018-06-16T17:42:18.904Z,20.90
2018-06-16T17:44:48.065Z,20.91
2018-06-16T17:47:17.263Z,20.78
2018-06-16T17:49:46.490Z,20.80
2018-06-16T17:52:15.656Z,20.75
2018-06-16T17:54:44.854Z,20.67
2018-06-16T17:57:14.087Z,20.70
2018-06-16T17:59:43.276Z,20.74
2018-06-16T18:02:12.473Z,20.74
2018-06-16T18:04:41.757Z,20.72
2018-06-16T18:07:10.860Z,20.67
2018-06-16T18:09:40.074Z,20.63
2018-06-16T18:12:09.345Z,20.57
2018-06-16T18:14:38.545Z,20.51
2018-06-16T18:17:07.863Z,20.46
2018-06-16T18:19:37.049Z,20.51
2018-06-16T18:22:06.147Z,20.43
2018-06-16T18:24:35.453Z,20.40
2018-06-16T18:27:04.528Z,20.29
2018-06-16T18:29:33.741Z,20.21
2018-06-16T18:32:02.941Z,20.17
2018-06-16T18:34:32.247Z,20.18
2018-06-16T18:37:00.965Z,20.16
2018-06-16T18:39:30.042Z,20.12
2018-06-16T18:41:59.319Z,20.07
2018-06-16T18:44:28.085Z,20.02
2018-06-16T18:46:57.229Z,20.00
2018-06-16T18:49:31.864Z,19.96
2018-06-16T18:52:01.278Z,19.97
2018-06-16T18:54:30.487Z,20.02
2018-06-16T18:56:59.629Z,19.95
2018-06-16T18:59:28.865Z,19.97
2018-06-16T19:01:58.053Z,19.92
2018-06-16T19:04:27.505Z,19.91
2018-06-16T19:06:56.549Z,19.96
2018-06-16T19:09:25.678Z,19.93
2018-06-16T19:11:55.036Z,19.97
2018-06-16T19:14:25.115Z,19.93
2018-06-16T19:16:54.352Z,19.84
2018-06-16T19:19:23.537Z,19.85
2018-06-16T19:21:52.857Z,19.89
2018-06-16T19:24:21.820Z,19.86
2018-06-16T19:26:51.692Z,19.86
2018-06-16T19:29:20.985Z,19.85
2018-06-16T19:31:50.240Z,19.82
2018-06-16T19:34:19.548Z,19.82
2018-06-16T19:36:48.803Z,19.76
2018-06-16T19:39:17.851Z,19.64
2018-06-16T19:41:47.029Z,19.75
2018-06-16T19:44:16.377Z,19.79
2018-06-16T19:46:45.648Z,19.84
2018-06-16T19:49:14.854Z,19.93
2018-06-16T19:51:43.686Z,19.86
2018-06-16T19:54:12.519Z,19.90
2018-06-16T19:56:41.234Z,19.94
2018-06-16T19:59:09.994Z,19.90
2018-06-16T20:01:38.748Z,19.91
2018-06-16T20:04:07.506Z,19.92
2018-06-16T20:06:36.422Z,19.93
2018-06-16T20:09:06.347Z,19.90
2018-06-16T20:11:35.082Z,19.84
2018-06-16T20:14:03.957Z,19.83
2018-06-16T20:16:32.731Z,19.77
2018-06-16T20:19:01.517Z,19.76
2018-06-16T20:21:30.771Z,19.78
2018-06-16T20:23:59.885Z,19.77
2018-06-16T20:26:29.028Z,19.77
2018-06-16T20:28:58.259Z,19.80
2018-06-16T20:31:27.293Z,19.83
2018-06-16T20:33:56.388Z,19.94
2018-06-16T20:36:25.717Z,19.97
2018-06-16T20:38:54.915Z,20.00
2018-06-16T20:41:24.106Z,20.01
2018-06-16T20:43:53.235Z,20.05
2018-06-16T20:46:22.399Z,19.98
2018-06-16T20:48:51.581Z,20.01
2018-06-16T20:51:20.741Z,19.93
2018-06-16T20:53:49.773Z,19.94
2018-06-16T20:56:18.982Z,19.96
2018-06-16T20:58:48.211Z,19.88
2018-06-16T21:01:17.399Z,19.81
2018-06-16T21:03:46.627Z,19.76
2018-06-16T21:06:15.825Z,19.75
2018-06-16T21:08:44.970Z,19.77
2018-06-16T21:11:14.184Z,19.68
2018-06-16T21:13:43.528Z,19.65
2018-06-16T21:16:12.683Z,19.64
2018-06-16T21:18:41.803Z,19.65
2018-06-16T21:21:11.155Z,19.64
2018-06-16T21:23:40.404Z,19.63
2018-06-16T21:26:09.627Z,19.51
2018-06-16T21:28:38.830Z,19.46
2018-06-16T21:31:07.911Z,19.48
2018-06-16T21:33:37.109Z,19.49
2018-06-16T21:36:06.322Z,19.50
2018-06-16T21:38:35.617Z,19.52
2018-06-16T21:41:04.655Z,19.56
2018-06-16T21:43:34.034Z,19.55
2018-06-16T21:46:03.361Z,19.57
2018-06-16T21:48:32.658Z,19.54
2018-06-16T21:51:01.693Z,19.56
2018-06-16T21:53:31.054Z,19.53
2018-06-16T21:56:00.271Z,19.53
2018-06-16T21:58:29.486Z,19.51
2018-06-16T22:00:58.652Z,19.52
2018-06-16T22:03:27.569Z,19.50
2018-06-16T22:05:56.869Z,19.51
2018-06-16T22:08:32.762Z,19.56
2018-06-16T22:11:02.989Z,19.63
2018-06-16T22:13:32.421Z,19.76
2018-06-16T22:16:01.520Z,19.69
2018-06-16T22:18:30.793Z,19.72
2018-06-16T22:20:59.943Z,19.72
2018-06-16T22:23:29.106Z,19.68
2018-06-16T22:25:58.466Z,19.59
2018-06-16T22:28:27.726Z,19.44
2018-06-16T22:30:57.128Z,19.49
2018-06-16T22:33:26.505Z,19.43
2018-06-16T22:35:55.735Z,19.45
2018-06-16T22:38:24.943Z,19.47
2018-06-16T22:40:54.041Z,19.46
2018-06-16T22:43:23.222Z,19.48
2018-06-16T22:45:52.531Z,19.49
2018-06-16T22:48:21.894Z,19.54
2018-06-16T22:50:50.918Z,19.64
2018-06-16T22:53:20.210Z,19.66
2018-06-16T22:55:49.303Z,19.67
2018-06-16T22:58:18.493Z,19.82
2018-06-16T23:00:47.690Z,19.85
2018-06-16T23:03:16.965Z,19.85
2018-06-16T23:05:46.104Z,19.84
2018-06-16T23:08:15.277Z,19.80
2018-06-16T23:10:44.448Z,19.74
2018-06-16T23:13:13.589Z,19.75
2018-06-16T23:15:42.790Z,19.75
2018-06-16T23:18:12.003Z,19.77
2018-06-16T23:20:41.298Z,19.80
2018-06-16T23:23:10.281Z,19.90
2018-06-16T23:25:39.577Z,19.89
2018-06-16T23:28:08.786Z,19.83
2018-06-16T23:30:38.090Z,19.82
2018-06-16T23:33:07.181Z,19.74
2018-06-16T23:35:36.378Z,19.72
2018-06-16T23:38:05.582Z,19.76
2018-06-16T23:40:34.902Z,19.76
2018-06-16T23:43:04.077Z,19.75
2018-06-16T23:45:33.277Z,19.81
2018-06-16T23:48:02.494Z,19.83
2018-06-16T23:50:31.661Z,19.77
2018-06-16T23:53:00.865Z,19.72
2018-06-16T23:55:30.110Z,19.67
2018-06-16T23:57:59.378Z,19.57
